Steuben, Maine
Current Conditions -  °F | °C
As of 6:15 AM on Thursday 18 Dec 2014 (Local Time) from KBHB Reporting Station
Overcast Overcast  
Wind Chill: -5°   Ceiling: 800
Heat Index:   Visibility: 2mi
Dew Point: -1°   Wind: 10mph
Humidity: 93%   Direction: 320°NW
Pressure: 29.56"   Gusts: NA
Location:  44.51°N, 67.97°W
Report Text: KBHB 181115Z AUTO 32009KT 2SM BKN008 OVC016 00/M01 A2956 RMK AO1
Loading
Personal Weather Stations






























Interactive Weather Map New forecast layout! Learn more

10-Day Weather Forecast

Advertisements
Track Severe Weather on mobile